Hauptseite
METAR-TAF:

METAR-TAF

Flughäfen :

Maastricht Aachen Airport

Maastricht Aachen, Niederlande

Breite: 50-55N, Länge: 005-47E, Höhe: 114 m

Beobachtung

Neuester Wetterbericht von vor 7 Minuten, um 06:55 UTC
Wind 5 kt aus Ost/Südost, variierte zwischen Ost/Nordost und Süd/Südost
Temperatur 19°C
Luftfeuchtigkeit 60%
Luftdruck 1019 hPa
Sichtweite 10 km oder mehr

METAR: EHBK 180655Z AUTO 11005KT 070V160 9999 NSC 19/11 Q1019 NOSIG

Zeit: 09:02 (07:02 UTC)

Prognose

Neuester Wetterbericht von vor 2 Stunden und 14 Minuten, um 04:48 UTC
Gültige Prognose vom 18 um 06 UTC bis 19 um 12 UTC
Wind 4 kt aus Nord/Nordwest
Sichtweite 10 km oder mehr
keine Wolken unter 1500 m und keine Kumulonimbus oder Gewitterwolken

TAF: EHBK 180448Z 1806/1912 34004KT CAVOK

Wetterbeobachtungen und Prognosen von mehr als 4000 Flughäfen (METAR und TAF Bericht).

Die verfügbaren Stationen werden durch gelbe und rote Markierungen auf der Karte dargestellt.

Führen Sie die Maus auf sie, um den Namen der Station zu sehen.

Darauf klicken, um die Beobachtung von Wetterbeobachtungen und Prognosen zu sehen.

Um die Karte zu ändern : klicken Sie auf den grünen Tasten mit einem schwarzen Kreuz Zum Vergrößern, auf den grünen Button mit einem Gedankenstrich zu verkleinern, oder auf die grünen Pfeile für benachbarte Karten.


METAR-TAF: